Time;durP1;ratioP1;P1;durP2;ratioP2;P2;SDS_P1;SDS_P2;PMS_P1;PMS_P2;Temp;Humidity;BMP_temperature;BMP_pressure;BME280_temperature;BME280_humidity;BME280_pressure;Samples;Min_cycle;Max_cycle;Signal;HPM_P1;HPM_P2
2024/04/20 00:00:55;;;;;;;;;;;;;;;;;;5504569;26;5087;-65
2024/04/20 00:03:20;;;;;;;;;;;;;;;;;;5506529;26;5079;-65
2024/04/20 00:05:45;;;;;;;;;;;;;;;;;;5515674;26;1289;-65
2024/04/20 00:08:11;;;;;;;;;;;;;;;;;;5483014;26;5098;-65
2024/04/20 00:10:36;;;;;;;;;;;;;;;;;;5513328;26;4642;-65
2024/04/20 00:13:01;;;;;;;;;;;;;;;;;;5505072;26;5088;-65
2024/04/20 00:15:27;;;;;;;;;;;;;;;;;;5516231;26;5087;-65
2024/04/20 00:17:52;;;;;;;;;;;;;;;;;;5520173;25;4567;-65
2024/04/20 00:20:17;;;;;;;;;;;;;;;;;;5520548;25;1499;-65
2024/04/20 00:22:43;;;;;;;;;;;;;;;;;;5512101;26;5250;-66
2024/04/20 00:25:08;;;;;;;;;;;;;;;;;;5497166;25;5177;-65
2024/04/20 00:27:33;;;;;;;;;;;;;;;;;;5495982;26;5143;-65
2024/04/20 00:29:59;;;;;;;;;;;;;;;;;;5509552;26;4778;-65
2024/04/20 00:32:24;;;;;;;;;;;;;;;;;;5509147;25;1714;-65
2024/04/20 00:34:50;;;;;;;;;;;;;;;;;;5514134;26;5104;-65
2024/04/20 00:37:15;;;;;;;;;;;;;;;;;;5497784;26;5243;-66
2024/04/20 00:39:40;;;;;;;;;;;;;;;;;;5506839;26;5236;-65
2024/04/20 00:42:08;;;;;;;;;;;;;;;;;;5505416;26;5148;-65
2024/04/20 00:44:34;;;;;;;;;;;;;;;;;;5510413;26;3209;-65
2024/04/20 00:47:01;;;;;;;;;;;;;;;;;;5516566;26;4548;-64
2024/04/20 00:49:30;;;;;;;;;;;;;;;;;;5506835;25;5154;-64
2024/04/20 00:51:55;;;;;;;;;;;;;;;;;;5509411;25;5078;-65
2024/04/20 00:54:20;;;;;;;;;;;;;;;;;;5510353;25;5201;-64
2024/04/20 00:56:46;;;;;;;;;;;;;;;;;;5483144;26;1739;-64
2024/04/20 00:59:11;;;;;;;;;;;;;;;;;;5457523;26;5249;-65
2024/04/20 01:01:37;;;;;;;;;;;;;;;;;;5521632;25;5051;-65
2024/04/20 01:04:02;;;;;;;;;;;;;;;;;;5500873;26;5131;-66
2024/04/20 01:06:28;;;;;;;;;;;;;;;;;;5468929;26;5238;-65
2024/04/20 01:08:55;;;;;;;;;;;;;;;;;;5514443;25;5243;-66
2024/04/20 01:11:21;;;;;;;;;;;;;;;;;;5472348;26;1644;-65
2024/04/20 01:13:51;;;;;;;;;;;;;;;;;;5488338;26;5076;-66
2024/04/20 01:16:16;;;;;;;;;;;;;;;;;;5504754;26;5182;-65
2024/04/20 01:18:42;;;;;;;;;;;;;;;;;;5500519;26;5225;-65
2024/04/20 01:21:08;;;;;;;;;;;;;;;;;;5507297;26;5048;-65
2024/04/20 01:23:33;;;;;;;;;;;;;;;;;;5466906;26;1381;-65
2024/04/20 01:25:59;;;;;;;;;;;;;;;;;;5463299;25;5065;-65
2024/04/20 01:28:24;;;;;;;;;;;;;;;;;;5510635;26;5101;-65
2024/04/20 01:30:49;;;;;;;;;;;;;;;;;;5506699;26;5096;-65
2024/04/20 01:33:15;;;;;;;;;;;;;;;;;;5512668;26;5148;-65
2024/04/20 01:35:41;;;;;;;;;;;;;;;;;;5502391;26;1390;-65
2024/04/20 01:38:07;;;;;;;;;;;;;;;;;;5510911;26;4480;-65
2024/04/20 01:40:33;;;;;;;;;;;;;;;;;;5518768;25;5093;-65
2024/04/20 01:42:58;;;;;;;;;;;;;;;;;;5504673;26;5121;-65
2024/04/20 01:45:23;;;;;;;;;;;;;;;;;;5507832;26;5122;-65
2024/04/20 01:47:49;;;;;;;;;;;;;;;;;;5504485;25;1833;-65
2024/04/20 01:50:16;;;;;;;;;;;;;;;;;;5512285;26;5027;-64
2024/04/20 01:52:41;;;;;;;;;;;;;;;;;;5517938;26;4652;-65
2024/04/20 01:55:07;;;;;;;;;;;;;;;;;;5497354;26;5132;-64
2024/04/20 01:57:32;;;;;;;;;;;;;;;;;;5483415;25;5183;-65
2024/04/20 01:59:58;;;;;;;;;;;;;;;;;;5475558;25;5088;-65
2024/04/20 02:02:23;;;;;;;;;;;;;;;;;;5497694;25;1247;-65
2024/04/20 02:04:48;;;;;;;;;;;;;;;;;;5507060;26;5198;-65
2024/04/20 02:07:14;;;;;;;;;;;;;;;;;;5507758;26;4617;-65
2024/04/20 02:09:40;;;;;;;;;;;;;;;;;;5509037;26;5023;-68
2024/04/20 02:12:06;;;;;;;;;;;;;;;;;;5502889;26;4480;-59
2024/04/20 02:14:31;;;;;;;;;;;;;;;;;;5519576;26;1394;-59
2024/04/20 02:16:57;;;;;;;;;;;;;;;;;;5513233;26;5715;-59
2024/04/20 02:19:22;;;;;;;;;;;;;;;;;;5505918;25;4707;-75
2024/04/20 02:21:47;;;;;;;;;;;;;;;;;;5503608;25;4557;-70
2024/04/20 02:24:13;;;;;;;;;;;;;;;;;;5506392;25;4779;-73
2024/04/20 02:26:38;;;;;;;;;;;;;;;;;;5463473;26;3501;-71
2024/04/20 02:29:04;;;;;;;;;;;;;;;;;;5495779;25;5712;-71
2024/04/20 02:31:29;;;;;;;;;;;;;;;;;;5492709;25;5038;-71
2024/04/20 02:33:55;;;;;;;;;;;;;;;;;;5494316;25;5221;-71
2024/04/20 02:36:23;;;;;;;;;;;;;;;;;;5501468;26;4607;-70
2024/04/20 02:38:48;;;;;;;;;;;;;;;;;;5505069;25;3428;-71
2024/04/20 02:41:14;;;;;;;;;;;;;;;;;;5512878;25;5023;-71
2024/04/20 02:43:39;;;;;;;;;;;;;;;;;;5504295;26;4566;-71
2024/04/20 02:46:05;;;;;;;;;;;;;;;;;;5510596;26;5663;-71
2024/04/20 02:48:30;;;;;;;;;;;;;;;;;;5517154;25;5057;-72
2024/04/20 02:50:55;;;;;;;;;;;;;;;;;;5514723;25;4768;-71
2024/04/20 02:53:21;;;;;;;;;;;;;;;;;;5518583;26;1262;-71
2024/04/20 02:55:46;;;;;;;;;;;;;;;;;;5507562;25;5376;-70
2024/04/20 02:58:11;;;;;;;;;;;;;;;;;;5515519;25;5060;-70
2024/04/20 03:00:37;;;;;;;;;;;;;;;;;;5485505;26;4659;-71
2024/04/20 03:03:02;;;;;;;;;;;;;;;;;;5508411;25;5174;-71
2024/04/20 03:05:27;;;;;;;;;;;;;;;;;;5511577;26;3265;-70
2024/04/20 03:07:53;;;;;;;;;;;;;;;;;;5491305;26;4766;-73
2024/04/20 03:10:18;;;;;;;;;;;;;;;;;;5512875;25;5115;-71
2024/04/20 03:12:43;;;;;;;;;;;;;;;;;;5513577;25;5273;-72
2024/04/20 03:15:09;;;;;;;;;;;;;;;;;;5515381;26;4528;-70
2024/04/20 03:17:34;;;;;;;;;;;;;;;;;;5511733;26;3573;-71
2024/04/20 03:19:59;;;;;;;;;;;;;;;;;;5509911;26;5238;-72
2024/04/20 03:22:25;;;;;;;;;;;;;;;;;;5507986;25;4997;-71
2024/04/20 03:24:50;;;;;;;;;;;;;;;;;;5501788;26;5304;-71
2024/04/20 03:27:16;;;;;;;;;;;;;;;;;;5498812;26;5198;-73
2024/04/20 03:29:41;;;;;;;;;;;;;;;;;;5507457;26;1276;-73
2024/04/20 03:32:06;;;;;;;;;;;;;;;;;;5514597;26;4964;-72
2024/04/20 03:34:32;;;;;;;;;;;;;;;;;;5508405;25;5100;-73
2024/04/20 03:36:57;;;;;;;;;;;;;;;;;;5509431;26;4524;-73
2024/04/20 03:39:23;;;;;;;;;;;;;;;;;;5464925;26;5176;-73
2024/04/20 03:41:48;;;;;;;;;;;;;;;;;;5507247;26;3473;-72
2024/04/20 03:44:14;;;;;;;;;;;;;;;;;;5518323;25;4987;-72
2024/04/20 03:46:39;;;;;;;;;;;;;;;;;;5515320;26;5076;-73
2024/04/20 03:49:05;;;;;;;;;;;;;;;;;;5510272;26;4458;-72
2024/04/20 03:51:30;;;;;;;;;;;;;;;;;;5509907;26;5729;-70
2024/04/20 03:53:55;;;;;;;;;;;;;;;;;;5510384;25;5212;-72
2024/04/20 03:56:21;;;;;;;;;;;;;;;;;;5500617;26;3351;-71
2024/04/20 03:58:49;;;;;;;;;;;;;;;;;;5495282;25;4657;-72
2024/04/20 04:01:14;;;;;;;;;;;;;;;;;;5517744;25;5064;-71
2024/04/20 04:03:39;;;;;;;;;;;;;;;;;;5514641;26;5161;-72
2024/04/20 04:06:05;;;;;;;;;;;;;;;;;;5500150;26;5157;-71
2024/04/20 04:08:30;;;;;;;;;;;;;;;;;;5492530;26;3355;-71
2024/04/20 04:10:55;;;;;;;;;;;;;;;;;;5514954;26;5121;-71
2024/04/20 04:13:21;;;;;;;;;;;;;;;;;;5507537;25;4748;-72
2024/04/20 04:15:46;;;;;;;;;;;;;;;;;;5506078;26;5104;-72
2024/04/20 04:18:13;;;;;;;;;;;;;;;;;;5513965;26;5186;-71
2024/04/20 04:20:38;;;;;;;;;;;;;;;;;;5518715;26;2939;-70
2024/04/20 04:23:05;;;;;;;;;;;;;;;;;;5513830;25;5093;-72
2024/04/20 04:25:30;;;;;;;;;;;;;;;;;;5507490;26;5081;-71
2024/04/20 04:27:56;;;;;;;;;;;;;;;;;;5501456;26;4609;-72
2024/04/20 04:30:22;;;;;;;;;;;;;;;;;;5494549;26;5124;-72
2024/04/20 04:32:47;;;;;;;;;;;;;;;;;;5523263;25;3434;-71
2024/04/20 04:35:12;;;;;;;;;;;;;;;;;;5493835;25;5057;-57
2024/04/20 04:37:38;;;;;;;;;;;;;;;;;;5507267;25;5117;-56
2024/04/20 04:40:03;;;;;;;;;;;;;;;;;;5502141;25;5044;-58
2024/04/20 04:42:29;;;;;;;;;;;;;;;;;;5511564;26;5249;-58
2024/04/20 04:44:55;;;;;;;;;;;;;;;;;;5463208;26;5250;-59
2024/04/20 04:47:21;;;;;;;;;;;;;;;;;;5466147;26;3463;-60
2024/04/20 04:49:46;;;;;;;;;;;;;;;;;;5506239;26;5217;-56
2024/04/20 04:52:11;;;;;;;;;;;;;;;;;;5499971;26;5254;-57
2024/04/20 04:54:37;;;;;;;;;;;;;;;;;;5500908;26;5141;-64
2024/04/20 04:57:02;;;;;;;;;;;;;;;;;;5507642;26;4575;-66
2024/04/20 04:59:28;;;;;;;;;;;;;;;;;;5470583;26;1397;-67
2024/04/20 05:01:54;;;;;;;;;;;;;;;;;;5518335;25;5238;-67
2024/04/20 05:04:20;;;;;;;;;;;;;;;;;;5501127;26;5228;-67
2024/04/20 05:06:46;;;;;;;;;;;;;;;;;;5472249;26;5099;-66
2024/04/20 05:09:12;;;;;;;;;;;;;;;;;;5519566;26;5120;-66
2024/04/20 05:11:37;;;;;;;;;;;;;;;;;;5520518;25;1500;-67
2024/04/20 05:14:03;;;;;;;;;;;;;;;;;;5518664;25;5265;-66
2024/04/20 05:16:28;;;;;;;;;;;;;;;;;;5507930;26;5101;-66
2024/04/20 05:18:53;;;;;;;;;;;;;;;;;;5498237;26;4575;-67
2024/04/20 05:21:19;;;;;;;;;;;;;;;;;;5506969;26;5075;-67
2024/04/20 05:23:45;;;;;;;;;;;;;;;;;;5513923;25;1368;-67
2024/04/20 05:26:10;;;;;;;;;;;;;;;;;;5513680;26;5036;-68
2024/04/20 05:28:35;;;;;;;;;;;;;;;;;;5511843;26;5187;-67
2024/04/20 05:31:01;;;;;;;;;;;;;;;;;;5511557;26;5086;-67
2024/04/20 05:33:27;;;;;;;;;;;;;;;;;;5507754;26;5242;-68
2024/04/20 05:35:52;;;;;;;;;;;;;;;;;;5515716;26;5107;-67
2024/04/20 05:38:18;;;;;;;;;;;;;;;;;;5504881;26;1195;-67
2024/04/20 05:40:43;;;;;;;;;;;;;;;;;;5509289;26;5201;-66
2024/04/20 05:43:08;;;;;;;;;;;;;;;;;;5509333;26;5280;-68
2024/04/20 05:45:37;;;;;;;;;;;;;;;;;;5509357;26;5122;-66
2024/04/20 05:48:03;;;;;;;;;;;;;;;;;;5500896;26;5181;-67
2024/04/20 05:50:29;;;;;;;;;;;;;;;;;;5509401;26;1322;-66
2024/04/20 05:52:54;;;;;;;;;;;;;;;;;;5511924;26;5078;-66
2024/04/20 05:55:19;;;;;;;;;;;;;;;;;;5506545;26;5091;-66
2024/04/20 05:57:45;;;;;;;;;;;;;;;;;;5497027;26;4796;-66
2024/04/20 06:00:10;;;;;;;;;;;;;;;;;;5483397;25;5040;-68
2024/04/20 06:02:36;;;;;;;;;;;;;;;;;;5505245;26;1264;-65
2024/04/20 06:05:04;;;;;;;;;;;;;;;;;;5518672;25;5159;-68
2024/04/20 06:07:29;;;;;;;;;;;;;;;;;;5519111;26;5441;-68
2024/04/20 06:09:55;;;;;;;;;;;;;;;;;;5519085;26;5178;-66
2024/04/20 06:12:20;;;;;;;;;;;;;;;;;;5486278;26;5168;-66
2024/04/20 06:14:49;;;;;;;;;;;;;;;;;;5511953;25;1337;-67
2024/04/20 06:17:14;;;;;;;;;;;;;;;;;;5518229;26;4943;-69
2024/04/20 06:19:40;;;;;;;;;;;;;;;;;;5506611;26;5175;-68
2024/04/20 06:22:05;;;;;;;;;;;;;;;;;;5504716;25;5182;-68
2024/04/20 06:24:31;;;;;;;;;;;;;;;;;;5485416;26;5137;-68
2024/04/20 06:26:57;;;;;;;;;;;;;;;;;;5507926;26;5440;-68
2024/04/20 06:29:25;;;;;;;;;;;;;;;;;;5512974;26;1329;-68
2024/04/20 06:31:50;;;;;;;;;;;;;;;;;;5505231;26;5068;-67
2024/04/20 06:34:16;;;;;;;;;;;;;;;;;;5511162;26;5107;-68
2024/04/20 06:36:41;;;;;;;;;;;;;;;;;;5508269;26;5092;-67
2024/04/20 06:39:07;;;;;;;;;;;;;;;;;;5485740;26;5142;-68
2024/04/20 06:41:32;;;;;;;;;;;;;;;;;;5505402;26;1245;-65
2024/04/20 06:43:59;;;;;;;;;;;;;;;;;;5473629;26;5272;-68
2024/04/20 06:46:25;;;;;;;;;;;;;;;;;;5517267;26;5075;-68
2024/04/20 06:48:50;;;;;;;;;;;;;;;;;;5518248;26;4587;-68
2024/04/20 06:51:16;;;;;;;;;;;;;;;;;;5518218;26;5119;-68
2024/04/20 06:53:41;;;;;;;;;;;;;;;;;;5518848;25;1323;-67
2024/04/20 06:56:09;;;;;;;;;;;;;;;;;;5485189;26;4596;-68
2024/04/20 06:58:35;;;;;;;;;;;;;;;;;;5515928;26;5123;-67
2024/04/20 07:01:01;;;;;;;;;;;;;;;;;;5514986;26;5142;-68
2024/04/20 07:03:27;;;;;;;;;;;;;;;;;;5500572;26;5150;-67
2024/04/20 07:05:52;;;;;;;;;;;;;;;;;;5507791;26;5173;-68
2024/04/20 07:08:18;;;;;;;;;;;;;;;;;;5512859;26;1887;-68
2024/04/20 07:10:45;;;;;;;;;;;;;;;;;;5499302;26;5021;-68
2024/04/20 07:13:10;;;;;;;;;;;;;;;;;;5496109;26;5262;-69
2024/04/20 07:15:36;;;;;;;;;;;;;;;;;;5505820;26;5246;-67
2024/04/20 07:18:01;;;;;;;;;;;;;;;;;;5498369;26;5208;-68
2024/04/20 07:20:27;;;;;;;;;;;;;;;;;;5502747;26;1388;-68
2024/04/20 07:22:52;;;;;;;;;;;;;;;;;;5501546;25;5258;-68
2024/04/20 07:25:17;;;;;;;;;;;;;;;;;;5474841;26;5180;-66
2024/04/20 07:27:44;;;;;;;;;;;;;;;;;;5457584;26;4781;-66
2024/04/20 07:30:10;;;;;;;;;;;;;;;;;;5463967;26;4702;-67
2024/04/20 07:32:35;;;;;;;;;;;;;;;;;;5443838;26;1686;-68
2024/04/20 07:35:00;;;;;;;;;;;;;;;;;;5469514;26;5287;-66
2024/04/20 07:37:26;;;;;;;;;;;;;;;;;;5459928;26;5258;-69
2024/04/20 07:39:51;;;;;;;;;;;;;;;;;;5441942;26;4654;-68
2024/04/20 07:42:16;;;;;;;;;;;;;;;;;;5466873;26;5011;-68
2024/04/20 07:44:42;;;;;;;;;;;;;;;;;;5460548;26;1351;-68
2024/04/20 07:47:07;;;;;;;;;;;;;;;;;;5464159;26;4996;-68
2024/04/20 07:49:32;;;;;;;;;;;;;;;;;;5457372;26;5050;-68
2024/04/20 07:51:58;;;;;;;;;;;;;;;;;;5449516;26;5197;-68
2024/04/20 07:54:23;;;;;;;;;;;;;;;;;;5460143;26;5049;-68
2024/04/20 07:56:49;;;;;;;;;;;;;;;;;;5464749;26;1864;-67
2024/04/20 07:59:14;;;;;;;;;;;;;;;;;;5459666;26;5634;-65
2024/04/20 08:01:39;;;;;;;;;;;;;;;;;;5473952;26;5246;-68
2024/04/20 08:04:05;;;;;;;;;;;;;;;;;;5463082;26;5171;-67
2024/04/20 08:06:30;;;;;;;;;;;;;;;;;;5458723;26;4688;-67
2024/04/20 08:08:55;;;;;;;;;;;;;;;;;;5456744;26;5096;-68
2024/04/20 08:11:21;;;;;;;;;;;;;;;;;;5461391;26;1394;-68
2024/04/20 08:13:46;;;;;;;;;;;;;;;;;;5450109;26;4525;-67
2024/04/20 08:16:12;;;;;;;;;;;;;;;;;;5416592;26;5035;-68
2024/04/20 08:18:37;;;;;;;;;;;;;;;;;;5468856;26;5117;-68
2024/04/20 08:21:03;;;;;;;;;;;;;;;;;;5459136;26;4635;-68
2024/04/20 08:23:28;;;;;;;;;;;;;;;;;;5480436;25;1409;-68
2024/04/20 08:25:53;;;;;;;;;;;;;;;;;;5469128;26;5067;-68
2024/04/20 08:28:20;;;;;;;;;;;;;;;;;;5512397;26;5222;-68
2024/04/20 08:30:45;;;;;;;;;;;;;;;;;;5502216;26;4620;-67
2024/04/20 08:33:11;;;;;;;;;;;;;;;;;;5479146;26;5209;-68
2024/04/20 08:35:36;;;;;;;;;;;;;;;;;;5499282;26;1356;-67
2024/04/20 08:38:01;;;;;;;;;;;;;;;;;;5511083;26;5067;-68
2024/04/20 08:40:27;;;;;;;;;;;;;;;;;;5512425;26;5061;-68
2024/04/20 08:42:52;;;;;;;;;;;;;;;;;;5478566;26;5208;-68
2024/04/20 08:45:19;;;;;;;;;;;;;;;;;;5470966;26;5025;-68
2024/04/20 08:47:45;;;;;;;;;;;;;;;;;;5481032;25;1829;-67
2024/04/20 08:50:10;;;;;;;;;;;;;;;;;;5472411;26;4513;-68
2024/04/20 08:52:36;;;;;;;;;;;;;;;;;;5479111;26;4536;-67
2024/04/20 08:55:01;;;;;;;;;;;;;;;;;;5476638;26;5104;-67
2024/04/20 08:57:27;;;;;;;;;;;;;;;;;;5482698;26;5151;-67
2024/04/20 08:59:52;;;;;;;;;;;;;;;;;;5504335;26;5925;-68
2024/04/20 09:02:18;;;;;;;;;;;;;;;;;;5481034;26;1519;-67
2024/04/20 09:04:44;;;;;;;;;;;;;;;;;;5461199;26;4547;-67
2024/04/20 09:07:10;;;;;;;;;;;;;;;;;;5519792;26;5051;-67
2024/04/20 09:09:35;;;;;;;;;;;;;;;;;;5518952;26;5458;-67
2024/04/20 09:12:01;;;;;;;;;;;;;;;;;;5475954;26;5327;-67
2024/04/20 09:14:27;;;;;;;;;;;;;;;;;;5515334;26;1275;-67
2024/04/20 09:16:52;;;;;;;;;;;;;;;;;;5519069;26;5148;-67
2024/04/20 09:19:18;;;;;;;;;;;;;;;;;;5519637;26;4662;-67
2024/04/20 09:21:43;;;;;;;;;;;;;;;;;;5519502;25;5131;-67
2024/04/20 09:24:08;;;;;;;;;;;;;;;;;;5509509;26;5254;-67
2024/04/20 09:26:34;;;;;;;;;;;;;;;;;;5514885;26;1849;-67
2024/04/20 09:28:59;;;;;;;;;;;;;;;;;;5508904;26;4555;-69
2024/04/20 09:31:28;;;;;;;;;;;;;;;;;;5490943;26;5864;-67
2024/04/20 09:33:57;;;;;;;;;;;;;;;;;;5502277;26;4535;-68
2024/04/20 09:36:22;;;;;;;;;;;;;;;;;;5464748;26;5249;-67
2024/04/20 09:38:47;;;;;;;;;;;;;;;;;;5508001;26;1357;-68
2024/04/20 09:41:14;;;;;;;;;;;;;;;;;;5510323;26;5043;-67
2024/04/20 09:43:40;;;;;;;;;;;;;;;;;;5458415;26;5709;-67
2024/04/20 09:46:05;;;;;;;;;;;;;;;;;;5471046;26;4822;-67
2024/04/20 09:48:31;;;;;;;;;;;;;;;;;;5463738;26;4725;-67
2024/04/20 09:51:04;;;;;;;;;;;;;;;;;;5514791;26;5091;-68
2024/04/20 09:53:36;;;;;;;;;;;;;;;;;;5480170;26;1420;-68
2024/04/20 09:56:02;;;;;;;;;;;;;;;;;;5493505;26;5058;-67
2024/04/20 09:58:29;;;;;;;;;;;;;;;;;;5503322;26;4693;-67
2024/04/20 10:00:54;;;;;;;;;;;;;;;;;;5499205;25;5036;-68
2024/04/20 10:03:20;;;;;;;;;;;;;;;;;;5482594;26;5083;-67
2024/04/20 10:05:45;;;;;;;;;;;;;;;;;;5466734;26;2524;-67
2024/04/20 10:08:11;;;;;;;;;;;;;;;;;;5518356;26;4994;-68
2024/04/20 10:10:37;;;;;;;;;;;;;;;;;;5480557;26;5102;-67
2024/04/20 10:13:03;;;;;;;;;;;;;;;;;;5452687;26;4546;-67
2024/04/20 10:15:29;;;;;;;;;;;;;;;;;;5494656;26;5232;-68
2024/04/20 10:17:54;;;;;;;;;;;;;;;;;;5518953;26;5092;-67
2024/04/20 10:20:29;;;;;;;;;;;;;;;;;;5506578;26;1252;-67
2024/04/20 10:22:54;;;;;;;;;;;;;;;;;;5518046;25;4629;-67
2024/04/20 10:25:20;;;;;;;;;;;;;;;;;;5514291;26;5050;-66
2024/04/20 10:27:48;;;;;;;;;;;;;;;;;;5514111;26;5136;-67
2024/04/20 10:30:20;;;;;;;;;;;;;;;;;;5504740;26;4964;-67
2024/04/20 10:32:46;;;;;;;;;;;;;;;;;;5511359;26;1412;-67
2024/04/20 10:35:12;;;;;;;;;;;;;;;;;;5499156;26;5196;-68
2024/04/20 10:37:38;;;;;;;;;;;;;;;;;;5477635;26;5685;-67
2024/04/20 10:40:07;;;;;;;;;;;;;;;;;;5500011;26;4689;-67
2024/04/20 10:42:34;;;;;;;;;;;;;;;;;;5502107;26;5085;-67
2024/04/20 10:45:10;;;;;;;;;;;;;;;;;;5504081;26;5244;-67
2024/04/20 10:47:35;;;;;;;;;;;;;;;;;;5504733;26;1900;-68
2024/04/20 10:50:01;;;;;;;;;;;;;;;;;;5477817;26;5075;-67
2024/04/20 10:52:27;;;;;;;;;;;;;;;;;;5479570;26;5123;-67
2024/04/20 10:54:53;;;;;;;;;;;;;;;;;;5480164;26;5083;-67
2024/04/20 10:57:18;;;;;;;;;;;;;;;;;;5503916;26;5208;-67
2024/04/20 10:59:44;;;;;;;;;;;;;;;;;;5501889;26;1420;-67
2024/04/20 11:02:12;;;;;;;;;;;;;;;;;;5514608;25;5949;-67
2024/04/20 11:04:37;;;;;;;;;;;;;;;;;;5518154;26;5165;-66
2024/04/20 11:07:03;;;;;;;;;;;;;;;;;;5483933;26;5169;-66
2024/04/20 11:09:29;;;;;;;;;;;;;;;;;;5512120;26;5161;-66
2024/04/20 11:12:00;;;;;;;;;;;;;;;;;;5511809;26;5282;-67
2024/04/20 11:14:26;;;;;;;;;;;;;;;;;;5504759;26;1219;-67
2024/04/20 11:16:51;;;;;;;;;;;;;;;;;;5479259;26;4696;-67
2024/04/20 11:19:17;;;;;;;;;;;;;;;;;;5469925;26;5159;-66
2024/04/20 11:21:42;;;;;;;;;;;;;;;;;;5514700;26;5152;-68
2024/04/20 11:24:08;;;;;;;;;;;;;;;;;;5503429;25;5259;-67
2024/04/20 11:26:33;;;;;;;;;;;;;;;;;;5468045;26;1872;-67
2024/04/20 11:28:58;;;;;;;;;;;;;;;;;;5499795;26;5078;-67
2024/04/20 11:31:24;;;;;;;;;;;;;;;;;;5479309;26;5062;-66
2024/04/20 11:33:49;;;;;;;;;;;;;;;;;;5483512;26;5070;-67
2024/04/20 11:36:16;;;;;;;;;;;;;;;;;;5483089;26;5157;-67
2024/04/20 11:38:41;;;;;;;;;;;;;;;;;;5490771;26;1401;-66
2024/04/20 11:41:06;;;;;;;;;;;;;;;;;;5509890;26;5014;-67
2024/04/20 11:43:34;;;;;;;;;;;;;;;;;;5505581;26;5068;-66
2024/04/20 11:46:00;;;;;;;;;;;;;;;;;;5515486;26;5121;-66
2024/04/20 11:48:29;;;;;;;;;;;;;;;;;;5502443;26;5079;-67
2024/04/20 11:54:17;;;;;;;;;;;;;;;;;;5509484;26;5052;-67
2024/04/20 11:56:42;;;;;;;;;;;;;;;;;;5478240;26;1968;-69
2024/04/20 11:59:11;;;;;;;;;;;;;;;;;;5514361;26;5107;-66
2024/04/20 12:01:36;;;;;;;;;;;;;;;;;;5515661;25;5089;-67
2024/04/20 12:04:01;;;;;;;;;;;;;;;;;;5503535;26;4541;-67
2024/04/20 12:06:27;;;;;;;;;;;;;;;;;;5509054;26;5016;-66
2024/04/20 12:08:52;;;;;;;;;;;;;;;;;;5516663;26;5125;-67
2024/04/20 12:11:17;;;;;;;;;;;;;;;;;;5513890;26;1371;-67
2024/04/20 12:13:43;;;;;;;;;;;;;;;;;;5495273;26;5188;-67
2024/04/20 12:16:12;;;;;;;;;;;;;;;;;;5513596;26;5198;-67
2024/04/20 12:18:37;;;;;;;;;;;;;;;;;;5513910;26;4675;-67
2024/04/20 12:21:02;;;;;;;;;;;;;;;;;;5509298;26;4561;-67
2024/04/20 12:23:28;;;;;;;;;;;;;;;;;;5508139;25;1440;-66
2024/04/20 12:25:53;;;;;;;;;;;;;;;;;;5500960;26;5170;-67
2024/04/20 12:28:19;;;;;;;;;;;;;;;;;;5518524;26;5247;-66
2024/04/20 12:30:44;;;;;;;;;;;;;;;;;;5506363;26;5102;-66
2024/04/20 12:33:10;;;;;;;;;;;;;;;;;;5514609;26;5213;-66
2024/04/20 12:35:36;;;;;;;;;;;;;;;;;;5502902;25;1344;-67
2024/04/20 12:38:01;;;;;;;;;;;;;;;;;;5515149;25;5029;-67
2024/04/20 12:40:27;;;;;;;;;;;;;;;;;;5506620;26;5204;-67
2024/04/20 12:42:52;;;;;;;;;;;;;;;;;;5519603;26;5667;-69
2024/04/20 12:45:17;;;;;;;;;;;;;;;;;;5501111;26;5217;-67
2024/04/20 12:47:46;;;;;;;;;;;;;;;;;;5514469;26;1856;-67
2024/04/20 12:50:12;;;;;;;;;;;;;;;;;;5517576;26;5120;-69
2024/04/20 12:52:37;;;;;;;;;;;;;;;;;;5511381;26;5044;-66
2024/04/20 12:55:03;;;;;;;;;;;;;;;;;;5500532;26;5144;-67
2024/04/20 12:57:29;;;;;;;;;;;;;;;;;;5505655;26;5181;-67
2024/04/20 12:59:54;;;;;;;;;;;;;;;;;;5507547;25;5135;-66
2024/04/20 13:02:20;;;;;;;;;;;;;;;;;;5510832;25;1249;-66
2024/04/20 13:04:45;;;;;;;;;;;;;;;;;;5519910;25;5124;-66
2024/04/20 13:07:10;;;;;;;;;;;;;;;;;;5519821;26;5010;-67
2024/04/20 13:09:36;;;;;;;;;;;;;;;;;;5519537;26;5065;-66
2024/04/20 13:12:01;;;;;;;;;;;;;;;;;;5518769;26;5167;-67
2024/04/20 13:14:27;;;;;;;;;;;;;;;;;;5516346;26;1407;-67
2024/04/20 13:16:53;;;;;;;;;;;;;;;;;;5510085;26;5046;-67
2024/04/20 13:19:20;;;;;;;;;;;;;;;;;;5519606;26;5183;-66
2024/04/20 13:21:45;;;;;;;;;;;;;;;;;;5480704;26;5086;-67
2024/04/20 13:24:10;;;;;;;;;;;;;;;;;;5510544;26;5216;-67
2024/04/20 13:26:36;;;;;;;;;;;;;;;;;;5517025;26;1865;-66
2024/04/20 13:29:02;;;;;;;;;;;;;;;;;;5506407;26;5010;-66
2024/04/20 13:31:27;;;;;;;;;;;;;;;;;;5498249;26;4518;-67
2024/04/20 13:33:54;;;;;;;;;;;;;;;;;;5506961;26;5209;-67
2024/04/20 13:36:20;;;;;;;;;;;;;;;;;;5509816;26;4552;-67
2024/04/20 13:38:45;;;;;;;;;;;;;;;;;;5512720;26;1182;-66
2024/04/20 13:41:10;;;;;;;;;;;;;;;;;;5506300;26;5590;-67
2024/04/20 13:43:36;;;;;;;;;;;;;;;;;;5504992;26;5117;-67
2024/04/20 13:46:09;;;;;;;;;;;;;;;;;;5493391;26;4583;-67
2024/04/20 13:48:34;;;;;;;;;;;;;;;;;;5506932;26;5117;-67
2024/04/20 13:50:59;;;;;;;;;;;;;;;;;;5512505;26;5187;-67
2024/04/20 13:53:25;;;;;;;;;;;;;;;;;;5510964;26;1329;-67
2024/04/20 13:55:54;;;;;;;;;;;;;;;;;;5503176;26;5048;-67
2024/04/20 13:58:20;;;;;;;;;;;;;;;;;;5472701;26;5125;-67
2024/04/20 14:00:45;;;;;;;;;;;;;;;;;;5514813;25;5078;-67
2024/04/20 14:03:10;;;;;;;;;;;;;;;;;;5519173;26;5128;-66
2024/04/20 14:05:36;;;;;;;;;;;;;;;;;;5512568;26;1439;-67
2024/04/20 14:08:01;;;;;;;;;;;;;;;;;;5515486;26;5615;-67
2024/04/20 14:10:26;;;;;;;;;;;;;;;;;;5518388;26;5047;-67
2024/04/20 14:12:52;;;;;;;;;;;;;;;;;;5500630;26;5067;-67
2024/04/20 14:15:18;;;;;;;;;;;;;;;;;;5503240;26;5179;-67
2024/04/20 14:17:43;;;;;;;;;;;;;;;;;;5509976;26;1373;-67
2024/04/20 14:20:13;;;;;;;;;;;;;;;;;;5518565;26;4918;-67
2024/04/20 14:22:39;;;;;;;;;;;;;;;;;;5517969;25;5085;-67
2024/04/20 14:25:04;;;;;;;;;;;;;;;;;;5476908;26;5165;-67
2024/04/20 14:27:29;;;;;;;;;;;;;;;;;;5494051;26;5107;-67
2024/04/20 14:29:55;;;;;;;;;;;;;;;;;;5512395;26;5065;-67
2024/04/20 14:32:20;;;;;;;;;;;;;;;;;;5500846;26;1412;-67
2024/04/20 14:34:46;;;;;;;;;;;;;;;;;;5507199;26;5802;-67
2024/04/20 14:37:11;;;;;;;;;;;;;;;;;;5502848;26;4997;-67
2024/04/20 14:39:37;;;;;;;;;;;;;;;;;;5510203;26;5103;-67
2024/04/20 14:42:02;;;;;;;;;;;;;;;;;;5496651;26;5106;-67
2024/04/20 14:44:27;;;;;;;;;;;;;;;;;;5506902;26;1281;-67
2024/04/20 14:46:53;;;;;;;;;;;;;;;;;;5512347;26;4505;-67
2024/04/20 14:49:18;;;;;;;;;;;;;;;;;;5503717;26;5087;-67
2024/04/20 14:51:43;;;;;;;;;;;;;;;;;;5500647;26;5278;-67
2024/04/20 14:54:09;;;;;;;;;;;;;;;;;;5514678;26;5206;-68
2024/04/20 14:56:34;;;;;;;;;;;;;;;;;;5466095;26;1513;-67
2024/04/20 14:59:00;;;;;;;;;;;;;;;;;;5516626;26;5097;-67
2024/04/20 15:01:27;;;;;;;;;;;;;;;;;;5518004;25;5130;-67
2024/04/20 15:03:52;;;;;;;;;;;;;;;;;;5517809;26;5099;-67
2024/04/20 15:06:17;;;;;;;;;;;;;;;;;;5518034;26;4597;-67
2024/04/20 15:08:43;;;;;;;;;;;;;;;;;;5507484;26;1845;-68
2024/04/20 15:11:14;;;;;;;;;;;;;;;;;;5517866;26;4999;-67
2024/04/20 15:13:39;;;;;;;;;;;;;;;;;;5517780;26;5276;-66
2024/04/20 15:16:05;;;;;;;;;;;;;;;;;;5518099;26;5143;-68
2024/04/20 15:18:30;;;;;;;;;;;;;;;;;;5505258;26;4710;-67
2024/04/20 15:20:56;;;;;;;;;;;;;;;;;;5514109;26;5638;-67
2024/04/20 15:23:21;;;;;;;;;;;;;;;;;;5499218;25;1282;-67
2024/04/20 15:25:46;;;;;;;;;;;;;;;;;;5508084;26;4583;-67
2024/04/20 15:28:12;;;;;;;;;;;;;;;;;;5515718;25;5197;-67
2024/04/20 15:30:39;;;;;;;;;;;;;;;;;;5503030;26;5033;-67
2024/04/20 15:33:05;;;;;;;;;;;;;;;;;;5506157;26;4577;-67
2024/04/20 15:35:31;;;;;;;;;;;;;;;;;;5502375;26;1371;-67
2024/04/20 15:37:57;;;;;;;;;;;;;;;;;;5510087;26;5143;-67
2024/04/20 15:40:22;;;;;;;;;;;;;;;;;;5503352;26;4648;-67
2024/04/20 15:42:51;;;;;;;;;;;;;;;;;;5509435;26;5082;-67
2024/04/20 15:45:16;;;;;;;;;;;;;;;;;;5501595;26;5265;-67
2024/04/20 15:47:41;;;;;;;;;;;;;;;;;;5506663;26;1833;-67
2024/04/20 15:50:07;;;;;;;;;;;;;;;;;;5504220;26;5091;-67
2024/04/20 15:52:32;;;;;;;;;;;;;;;;;;5471636;26;5219;-67
2024/04/20 15:54:58;;;;;;;;;;;;;;;;;;5502411;26;5370;-67
2024/04/20 15:57:23;;;;;;;;;;;;;;;;;;5517708;26;5351;-66
2024/04/20 15:59:48;;;;;;;;;;;;;;;;;;5521401;26;1439;-67
2024/04/20 16:02:14;;;;;;;;;;;;;;;;;;5518311;25;5095;-67
2024/04/20 16:04:39;;;;;;;;;;;;;;;;;;5516483;26;5187;-67
2024/04/20 16:07:05;;;;;;;;;;;;;;;;;;5516541;25;5133;-67
2024/04/20 16:09:30;;;;;;;;;;;;;;;;;;5520430;26;5300;-67
2024/04/20 16:11:55;;;;;;;;;;;;;;;;;;5520082;25;5135;-67
2024/04/20 16:14:21;;;;;;;;;;;;;;;;;;5521092;26;1298;-67
2024/04/20 16:16:46;;;;;;;;;;;;;;;;;;5520736;26;5924;-67
2024/04/20 16:19:12;;;;;;;;;;;;;;;;;;5513527;26;5271;-66
2024/04/20 16:21:37;;;;;;;;;;;;;;;;;;5520097;26;5107;-67
2024/04/20 16:24:04;;;;;;;;;;;;;;;;;;5520227;25;4556;-68
2024/04/20 16:26:30;;;;;;;;;;;;;;;;;;5518298;26;1868;-67
2024/04/20 16:28:55;;;;;;;;;;;;;;;;;;5481698;26;4986;-67
2024/04/20 16:31:20;;;;;;;;;;;;;;;;;;5488107;26;5169;-67
2024/04/20 16:33:46;;;;;;;;;;;;;;;;;;5500618;26;5070;-67
2024/04/20 16:36:12;;;;;;;;;;;;;;;;;;5503884;26;5004;-67
2024/04/20 16:38:37;;;;;;;;;;;;;;;;;;5513689;26;1278;-67
2024/04/20 16:41:05;;;;;;;;;;;;;;;;;;5515544;26;5012;-67
2024/04/20 16:43:30;;;;;;;;;;;;;;;;;;5504802;26;5060;-66
2024/04/20 16:45:56;;;;;;;;;;;;;;;;;;5437817;26;5104;-66
2024/04/20 16:48:21;;;;;;;;;;;;;;;;;;5507553;26;5108;-67
2024/04/20 16:50:47;;;;;;;;;;;;;;;;;;5513214;26;1256;-67
2024/04/20 16:53:12;;;;;;;;;;;;;;;;;;5501554;26;4984;-69
2024/04/20 16:55:37;;;;;;;;;;;;;;;;;;5480802;26;4700;-67